createdAt,value
2018-01-12T00:01:14.658Z,26.85
2018-01-12T00:03:40.966Z,18.52
2018-01-12T00:06:07.723Z,21.27
2018-01-12T00:08:33.969Z,24.30
2018-01-12T00:11:00.257Z,22.87
2018-01-12T00:13:26.634Z,21.60
2018-01-12T00:15:52.937Z,19.90
2018-01-12T00:18:19.141Z,23.85
2018-01-12T00:20:46.862Z,24.40
2018-01-12T00:23:13.806Z,25.33
2018-01-12T00:25:42.026Z,22.50
2018-01-12T00:28:08.285Z,23.23
2018-01-12T00:30:35.865Z,19.15
2018-01-12T00:33:02.147Z,19.83
2018-01-12T00:35:28.380Z,20.73
2018-01-12T00:37:54.903Z,20.98
2018-01-12T00:40:22.253Z,21.77
2018-01-12T00:42:49.867Z,19.02
2018-01-12T00:45:16.452Z,23.15
2018-01-12T00:47:43.962Z,21.27
2018-01-12T00:50:10.988Z,21.92
2018-01-12T00:52:38.342Z,28.02
2018-01-12T00:55:05.410Z,27.65
2018-01-12T00:57:32.252Z,22.62
2018-01-12T00:59:58.763Z,21.42
2018-01-12T01:02:26.015Z,19.58
2018-01-12T01:04:52.781Z,17.50
2018-01-12T01:07:19.013Z,17.42
2018-01-12T01:09:45.862Z,18.60
2018-01-12T01:12:12.506Z,19.95
2018-01-12T01:14:38.754Z,22.52
2018-01-12T01:17:06.661Z,20.83
2018-01-12T01:19:33.656Z,21.73
2018-01-12T01:22:00.964Z,19.10
2018-01-12T01:24:28.951Z,19.80
2018-01-12T01:26:55.938Z,22.45
2018-01-12T01:29:23.292Z,22.60
2018-01-12T01:31:51.492Z,25.35
2018-01-12T01:34:17.707Z,29.58
2018-01-12T01:36:44.869Z,23.25
2018-01-12T01:39:11.969Z,26.83
2018-01-12T01:41:38.830Z,21.90
2018-01-12T01:44:06.278Z,25.65
2018-01-12T01:46:33.238Z,21.20
2018-01-12T01:48:59.917Z,22.92
2018-01-12T01:51:26.673Z,20.27
2018-01-12T01:53:53.210Z,20.30
2018-01-12T01:56:20.316Z,18.05
2018-01-12T01:58:47.177Z,21.27
2018-01-12T02:01:13.645Z,19.40
2018-01-12T02:03:41.315Z,19.33
2018-01-12T02:06:07.794Z,16.70
2018-01-12T02:08:34.519Z,21.33
2018-01-12T02:11:02.198Z,20.00
2018-01-12T02:13:29.258Z,15.60
2018-01-12T02:15:57.116Z,16.95
2018-01-12T02:18:24.384Z,16.52
2018-01-12T02:20:50.998Z,24.52
2018-01-12T02:23:17.844Z,16.80
2018-01-12T02:25:44.052Z,15.98
2018-01-12T02:28:10.903Z,19.60
2018-01-12T02:30:37.517Z,13.25
2018-01-12T02:33:04.522Z,15.40
2018-01-12T02:35:31.404Z,17.98
2018-01-12T02:37:59.345Z,16.87
2018-01-12T02:40:25.883Z,15.50
2018-01-12T02:42:54.411Z,15.00
2018-01-12T02:45:21.453Z,19.45
2018-01-12T02:47:47.692Z,22.13
2018-01-12T02:50:13.907Z,15.63
2018-01-12T02:52:40.137Z,17.70
2018-01-12T02:55:06.342Z,18.15
2018-01-12T02:57:33.800Z,16.95
2018-01-12T03:00:02.670Z,16.27
2018-01-12T03:02:29.445Z,16.67
2018-01-12T03:04:55.677Z,17.50
2018-01-12T03:07:22.480Z,15.88
2018-01-12T03:09:49.195Z,16.12
2018-01-12T03:12:16.085Z,15.05
2018-01-12T03:14:43.023Z,15.00
2018-01-12T03:17:10.666Z,13.55
2018-01-12T03:19:38.163Z,14.48
2018-01-12T03:22:05.258Z,16.40
2018-01-12T03:24:31.560Z,13.80
2018-01-12T03:26:57.772Z,15.13
2018-01-12T03:31:57.240Z,11.27
2018-01-12T03:34:23.514Z,14.98
2018-01-12T03:36:50.458Z,10.73
2018-01-12T03:39:17.989Z,12.63
2018-01-12T03:41:45.464Z,13.20
2018-01-12T03:44:12.526Z,14.02
2018-01-12T03:46:38.767Z,15.90
2018-01-12T03:49:05.059Z,14.40
2018-01-12T03:51:32.132Z,15.65
2018-01-12T03:53:59.498Z,12.63
2018-01-12T03:56:26.287Z,14.35
2018-01-12T03:58:52.514Z,10.85
2018-01-12T04:01:19.367Z,14.30
2018-01-12T04:03:46.355Z,14.82
2018-01-12T04:06:13.443Z,17.48
2018-01-12T04:08:40.686Z,14.05
2018-01-12T04:11:09.563Z,12.20
2018-01-12T04:13:36.600Z,15.48
2018-01-12T04:16:02.789Z,12.35
2018-01-12T04:18:30.179Z,11.85
2018-01-12T04:20:57.310Z,13.30
2018-01-12T04:23:23.539Z,12.18
2018-01-12T04:25:49.930Z,13.50
2018-01-12T04:28:16.975Z,14.30
2018-01-12T04:30:44.401Z,13.82
2018-01-12T04:33:11.054Z,14.20
2018-01-12T04:35:38.594Z,11.52
2018-01-12T04:38:05.590Z,13.40
2018-01-12T04:40:32.560Z,11.48
2018-01-12T04:42:58.761Z,12.88
2018-01-12T04:45:26.664Z,14.57
2018-01-12T04:47:53.126Z,13.23
2018-01-12T04:50:20.112Z,15.50
2018-01-12T04:52:47.061Z,11.85
2018-01-12T04:55:14.066Z,9.95
2018-01-12T04:57:40.729Z,14.07
2018-01-12T05:00:07.721Z,13.80
2018-01-12T05:02:33.932Z,12.10
2018-01-12T05:05:02.165Z,12.90
2018-01-12T05:07:28.352Z,14.15
2018-01-12T05:09:55.248Z,13.57
2018-01-12T05:12:21.453Z,11.95
2018-01-12T05:14:48.295Z,11.95
2018-01-12T05:17:14.545Z,12.88
2018-01-12T05:19:41.773Z,13.27
2018-01-12T05:22:09.556Z,13.43
2018-01-12T05:24:36.514Z,13.25
2018-01-12T05:27:03.515Z,14.98
2018-01-12T05:29:30.270Z,12.50
2018-01-12T05:31:57.656Z,14.43
2018-01-12T05:34:24.771Z,17.12
2018-01-12T05:36:50.990Z,16.37
2018-01-12T05:39:17.249Z,14.77
2018-01-12T05:41:43.842Z,9.63
2018-01-12T05:44:10.061Z,12.35
2018-01-12T05:46:36.314Z,20.90
2018-01-12T05:49:02.587Z,18.40
2018-01-12T05:51:29.563Z,20.45
2018-01-12T05:53:55.990Z,15.57
2018-01-12T05:56:22.212Z,15.48
2018-01-12T05:58:48.481Z,14.30
2018-01-12T06:01:27.245Z,18.58
2018-01-12T06:07:00.141Z,14.87
2018-01-12T06:09:27.669Z,16.33
2018-01-12T06:11:54.270Z,14.77
2018-01-12T06:14:21.411Z,10.80
2018-01-12T06:16:48.225Z,12.65
2018-01-12T06:19:15.336Z,13.10
2018-01-12T06:21:42.574Z,12.93
2018-01-12T06:24:09.931Z,19.33
2018-01-12T06:26:36.166Z,13.45
2018-01-12T06:29:02.835Z,17.08
2018-01-12T06:31:30.796Z,13.02
2018-01-12T06:33:57.853Z,12.57
2018-01-12T06:36:24.495Z,15.77
2018-01-12T06:38:52.337Z,14.57
2018-01-12T06:41:19.511Z,12.63
2018-01-12T06:43:47.148Z,22.08
2018-01-12T06:46:13.890Z,16.48
2018-01-12T06:48:40.657Z,17.73
2018-01-12T06:51:07.663Z,17.30
2018-01-12T06:53:33.880Z,20.37
2018-01-12T06:56:00.700Z,14.40
2018-01-12T06:58:26.917Z,14.65
2018-01-12T07:00:53.312Z,14.00
2018-01-12T07:03:20.511Z,15.98
2018-01-12T07:05:47.338Z,15.05
2018-01-12T07:08:13.599Z,20.83
2018-01-12T07:10:40.365Z,13.73
2018-01-12T07:13:06.565Z,17.92
2018-01-12T07:15:32.786Z,15.90
2018-01-12T07:17:59.633Z,15.13
2018-01-12T07:20:38.018Z,15.57
2018-01-12T07:23:17.030Z,14.38
2018-01-12T07:25:44.671Z,14.95
2018-01-12T07:28:10.909Z,24.12
2018-01-12T07:30:37.644Z,21.12
2018-01-12T07:33:03.881Z,18.30
2018-01-12T07:35:31.090Z,13.40
2018-01-12T07:37:57.516Z,20.48
2018-01-12T07:40:23.773Z,19.10
2018-01-12T07:42:50.890Z,18.90
2018-01-12T07:45:17.696Z,13.60
2018-01-12T07:47:44.896Z,13.35
2018-01-12T07:50:12.840Z,11.23
2018-01-12T07:52:45.703Z,13.98
2018-01-12T07:55:12.212Z,13.02
2018-01-12T07:57:41.034Z,11.52
2018-01-12T08:00:07.338Z,10.73
2018-01-12T08:02:40.290Z,12.60
2018-01-12T08:05:06.508Z,11.68
2018-01-12T08:07:33.161Z,15.88
2018-01-12T08:10:00.358Z,14.55
2018-01-12T08:12:28.535Z,16.35
2018-01-12T08:14:56.521Z,17.40
2018-01-12T08:17:23.787Z,15.13
2018-01-12T08:19:50.103Z,15.85
2018-01-12T08:22:16.877Z,17.30
2018-01-12T08:24:43.120Z,16.92
2018-01-12T08:27:10.105Z,14.52
2018-01-12T08:29:37.146Z,15.73
2018-01-12T08:32:03.998Z,15.90
2018-01-12T08:34:30.277Z,17.02
2018-01-12T08:36:56.507Z,17.62
2018-01-12T08:39:22.741Z,16.55
2018-01-12T08:41:49.550Z,16.73
2018-01-12T08:44:16.611Z,13.62
2018-01-12T08:46:43.141Z,13.23
2018-01-12T08:49:09.376Z,17.10
2018-01-12T08:51:35.584Z,19.65
2018-01-12T08:54:01.929Z,18.73
2018-01-12T08:56:28.492Z,21.30
2018-01-12T08:58:55.377Z,21.50
2018-01-12T09:01:21.833Z,22.90
2018-01-12T09:03:48.820Z,18.92
2018-01-12T09:06:15.993Z,22.05
2018-01-12T09:08:43.281Z,20.10
2018-01-12T09:11:09.556Z,18.50
2018-01-12T09:13:49.829Z,22.85
2018-01-12T09:16:26.602Z,18.90
2018-01-12T09:19:06.189Z,20.37
2018-01-12T09:21:36.052Z,27.05
2018-01-12T09:24:08.694Z,20.77
2018-01-12T09:26:35.690Z,20.80
2018-01-12T09:29:02.535Z,20.17
2018-01-12T09:31:38.798Z,23.00
2018-01-12T09:34:18.114Z,21.33
2018-01-12T09:36:45.062Z,23.87
2018-01-12T09:39:11.977Z,23.17
2018-01-12T09:41:38.190Z,24.08
2018-01-12T09:44:05.055Z,24.92
2018-01-12T09:46:32.061Z,23.70
2018-01-12T09:48:58.322Z,20.55
2018-01-12T09:51:24.683Z,27.02
2018-01-12T09:53:51.730Z,26.80
2018-01-12T09:56:17.920Z,26.10
2018-01-12T09:58:44.182Z,22.85
2018-01-12T10:01:20.853Z,23.27
2018-01-12T10:03:48.543Z,20.95
2018-01-12T10:06:14.861Z,25.77
2018-01-12T10:08:41.221Z,21.65
2018-01-12T10:11:07.591Z,23.15
2018-01-12T10:13:35.239Z,21.67
2018-01-12T10:16:01.468Z,23.35
2018-01-12T10:18:33.721Z,24.55
2018-01-12T10:21:11.671Z,23.77
2018-01-12T10:23:37.898Z,21.27
2018-01-12T10:26:04.543Z,20.35
2018-01-12T10:28:32.234Z,25.83
2018-01-12T10:30:58.446Z,21.52
2018-01-12T10:36:30.574Z,23.87
2018-01-12T10:38:57.875Z,26.15
2018-01-12T10:41:30.160Z,22.98
2018-01-12T10:43:57.015Z,18.73
2018-01-12T10:46:36.206Z,16.23
2018-01-12T10:49:07.643Z,20.90
2018-01-12T10:51:37.740Z,18.15
2018-01-12T10:54:04.482Z,19.65
2018-01-12T10:56:30.715Z,23.58
2018-01-12T10:58:57.164Z,20.30
2018-01-12T11:01:24.281Z,20.33
2018-01-12T11:03:50.534Z,20.58
2018-01-12T11:06:17.513Z,20.83
2018-01-12T11:08:43.744Z,22.13
2018-01-12T11:11:10.931Z,17.52
2018-01-12T11:13:38.569Z,19.50
2018-01-12T11:16:06.087Z,18.00
2018-01-12T11:18:33.209Z,21.00
2018-01-12T11:21:00.200Z,15.88
2018-01-12T11:23:26.415Z,20.62
2018-01-12T11:25:54.033Z,19.40
2018-01-12T11:28:22.893Z,20.30
2018-01-12T11:30:50.079Z,17.83
2018-01-12T11:33:16.408Z,17.98
2018-01-12T11:35:43.091Z,18.83
2018-01-12T11:38:09.303Z,18.30
2018-01-12T11:40:36.259Z,16.90
2018-01-12T11:43:03.235Z,19.33
2018-01-12T11:45:30.578Z,19.40
2018-01-12T11:47:57.821Z,18.05
2018-01-12T11:50:25.177Z,16.98
2018-01-12T11:52:52.202Z,16.83
2018-01-12T11:55:19.141Z,19.10
2018-01-12T11:57:46.265Z,16.35
2018-01-12T12:00:13.530Z,20.55
2018-01-12T12:02:41.312Z,18.77
2018-01-12T12:05:08.961Z,20.23
2018-01-12T12:07:36.283Z,18.75
2018-01-12T12:10:02.668Z,18.37
2018-01-12T12:12:28.906Z,20.42
2018-01-12T12:14:55.150Z,19.50
2018-01-12T12:17:21.352Z,19.70
2018-01-12T12:19:47.850Z,15.68
2018-01-12T12:22:15.565Z,15.38
2018-01-12T12:24:41.856Z,13.85
2018-01-12T12:27:08.930Z,14.55
2018-01-12T12:29:35.769Z,16.27
2018-01-12T12:32:02.265Z,13.00
2018-01-12T12:34:29.287Z,15.63
2018-01-12T12:36:55.589Z,13.88
2018-01-12T12:39:21.838Z,16.35
2018-01-12T12:41:48.075Z,13.65
2018-01-12T12:44:14.768Z,15.07
2018-01-12T12:46:40.991Z,13.75
2018-01-12T12:49:07.399Z,16.58
2018-01-12T12:51:35.003Z,15.45
2018-01-12T12:54:01.615Z,13.27
2018-01-12T12:56:28.730Z,17.23
2018-01-12T12:58:55.609Z,15.32
2018-01-12T13:01:24.034Z,16.65
2018-01-12T13:03:51.661Z,18.30
2018-01-12T13:06:19.312Z,15.88
2018-01-12T13:08:46.622Z,13.85
2018-01-12T13:11:12.939Z,14.52
2018-01-12T13:13:39.854Z,16.17
2018-01-12T13:16:07.098Z,16.30
2018-01-12T13:18:34.715Z,19.98
2018-01-12T13:21:01.456Z,13.90
2018-01-12T13:23:28.201Z,16.25
2018-01-12T13:25:54.407Z,17.58
2018-01-12T13:28:20.637Z,20.12
2018-01-12T13:30:46.974Z,21.02
2018-01-12T13:33:13.419Z,18.60
2018-01-12T13:35:41.410Z,23.30
2018-01-12T13:38:08.959Z,15.65
2018-01-12T13:40:35.490Z,17.87
2018-01-12T13:43:02.240Z,15.73
2018-01-12T13:45:29.305Z,16.85
2018-01-12T13:47:56.049Z,17.87
2018-01-12T13:50:22.492Z,18.58
2018-01-12T13:52:49.354Z,16.83
2018-01-12T13:55:16.611Z,15.23
2018-01-12T13:57:42.832Z,17.85
2018-01-12T14:00:09.073Z,16.15
2018-01-12T14:02:35.284Z,17.77
2018-01-12T14:05:01.482Z,18.42
2018-01-12T14:07:28.203Z,15.90
2018-01-12T14:09:55.267Z,17.48
2018-01-12T14:12:22.315Z,19.30
2018-01-12T14:14:48.537Z,23.08
2018-01-12T14:17:16.402Z,16.85
2018-01-12T14:19:43.350Z,19.23
2018-01-12T14:22:09.608Z,14.93
2018-01-12T14:24:36.504Z,19.70
2018-01-12T14:27:03.467Z,22.27
2018-01-12T14:29:30.985Z,21.30
2018-01-12T14:31:57.411Z,20.90
2018-01-12T14:34:24.395Z,19.62
2018-01-12T14:36:51.780Z,18.90
2018-01-12T14:39:18.777Z,16.42
2018-01-12T14:41:46.776Z,24.02
2018-01-12T14:44:13.847Z,16.50
2018-01-12T14:46:40.846Z,18.10
2018-01-12T14:49:07.815Z,19.73
2018-01-12T14:51:34.562Z,16.00
2018-01-12T14:54:00.787Z,19.40
2018-01-12T14:56:27.519Z,15.60
2018-01-12T14:58:54.585Z,21.45
2018-01-12T15:01:21.867Z,20.23
2018-01-12T15:03:48.166Z,24.25
2018-01-12T15:06:14.568Z,20.37
2018-01-12T15:08:41.530Z,20.27
2018-01-12T15:11:08.276Z,19.85
2018-01-12T15:13:35.019Z,19.10
2018-01-12T15:16:02.236Z,20.80
2018-01-12T15:18:29.029Z,19.08
2018-01-12T15:20:55.735Z,22.13
2018-01-12T15:23:22.488Z,24.00
2018-01-12T15:25:49.838Z,22.48
2018-01-12T15:28:16.302Z,21.40
2018-01-12T15:30:43.078Z,17.37
2018-01-12T15:33:10.062Z,23.58
2018-01-12T15:35:36.273Z,15.35
2018-01-12T15:38:03.219Z,19.55
2018-01-12T15:40:31.174Z,18.50
2018-01-12T15:42:58.805Z,17.62
2018-01-12T15:45:25.058Z,18.87
2018-01-12T15:47:53.223Z,16.45
2018-01-12T15:50:20.782Z,21.02
2018-01-12T15:52:48.109Z,19.83
2018-01-12T15:55:14.322Z,20.75
2018-01-12T15:57:40.952Z,19.90
2018-01-12T16:00:07.277Z,32.70
2018-01-12T16:02:34.337Z,29.55
2018-01-12T16:05:01.264Z,23.02
2018-01-12T16:07:27.499Z,21.17
2018-01-12T16:09:54.592Z,21.45
2018-01-12T16:12:21.450Z,23.58
2018-01-12T16:14:48.370Z,18.90
2018-01-12T16:17:14.962Z,24.42
2018-01-12T16:19:42.111Z,21.92
2018-01-12T16:22:08.539Z,25.55
2018-01-12T16:24:35.647Z,20.98
2018-01-12T16:27:01.954Z,30.35
2018-01-12T16:29:28.464Z,21.75
2018-01-12T16:31:54.938Z,23.67
2018-01-12T16:34:21.484Z,26.52
2018-01-12T16:36:49.275Z,27.15
2018-01-12T16:39:17.472Z,24.90
2018-01-12T16:41:42.942Z,23.42
2018-01-12T16:44:09.947Z,20.90
2018-01-12T16:46:36.669Z,26.15
2018-01-12T16:49:03.129Z,26.60
2018-01-12T16:51:30.132Z,24.75
2018-01-12T16:53:56.919Z,26.00
2018-01-12T16:56:23.349Z,26.35
2018-01-12T16:58:50.955Z,23.10
2018-01-12T17:01:17.166Z,26.27
2018-01-12T17:03:44.223Z,29.55
2018-01-12T17:06:12.160Z,19.23
2018-01-12T17:08:39.822Z,25.23
2018-01-12T17:11:06.199Z,22.37
2018-01-12T17:13:33.084Z,22.58
2018-01-12T17:15:59.727Z,20.90
2018-01-12T17:18:27.189Z,19.60
2018-01-12T17:20:54.215Z,25.17
2018-01-12T17:23:20.974Z,24.33
2018-01-12T17:25:47.182Z,33.65
2018-01-12T17:28:13.446Z,32.03
2018-01-12T17:30:39.718Z,34.13
2018-01-12T17:33:06.347Z,28.83
2018-01-12T17:35:33.046Z,27.75
2018-01-12T17:38:00.727Z,29.67
2018-01-12T17:40:28.318Z,27.20
2018-01-12T17:42:54.619Z,30.75
2018-01-12T17:45:21.785Z,26.58
2018-01-12T17:47:49.870Z,24.35
2018-01-12T17:50:16.269Z,25.48
2018-01-12T17:52:43.367Z,27.17
2018-01-12T17:55:09.897Z,22.73
2018-01-12T17:57:36.919Z,25.10
2018-01-12T18:00:03.262Z,28.92
2018-01-12T18:02:29.587Z,28.38
2018-01-12T18:04:55.783Z,28.87
2018-01-12T18:07:22.978Z,29.55
2018-01-12T18:09:49.300Z,27.20
2018-01-12T18:12:15.507Z,35.30
2018-01-12T18:14:41.756Z,36.75
2018-01-12T18:17:08.145Z,35.85
2018-01-12T18:19:35.400Z,29.67
2018-01-12T18:22:02.568Z,30.23
2018-01-12T18:24:28.796Z,32.63
2018-01-12T18:26:56.069Z,36.75
2018-01-12T18:29:22.269Z,34.28
2018-01-12T18:31:48.787Z,34.38
2018-01-12T18:34:16.077Z,33.88
2018-01-12T18:36:43.358Z,25.60
2018-01-12T18:39:10.414Z,36.58
2018-01-12T18:41:36.629Z,31.55
2018-01-12T18:44:02.890Z,32.40
2018-01-12T18:46:29.217Z,33.33
2018-01-12T18:48:55.525Z,28.10
2018-01-12T18:51:22.523Z,32.72
2018-01-12T18:53:49.953Z,29.23
2018-01-12T18:56:16.251Z,33.53
2018-01-12T18:58:42.509Z,29.12
2018-01-12T19:01:08.731Z,33.45
2018-01-12T19:03:35.574Z,31.90
2018-01-12T19:06:01.822Z,39.65
2018-01-12T19:08:29.031Z,42.85
2018-01-12T19:10:56.210Z,33.58
2018-01-12T19:13:22.714Z,38.85
2018-01-12T19:15:50.047Z,41.47
2018-01-12T19:18:17.774Z,44.95
2018-01-12T19:20:44.734Z,48.00
2018-01-12T19:23:10.944Z,43.05
2018-01-12T19:25:37.919Z,39.05
2018-01-12T19:28:04.157Z,41.08
2018-01-12T19:30:30.349Z,42.50
2018-01-12T19:32:57.541Z,41.95
2018-01-12T19:35:24.353Z,44.55
2018-01-12T19:37:51.259Z,33.65
2018-01-12T19:40:17.539Z,34.97
2018-01-12T19:42:44.271Z,45.42
2018-01-12T19:45:10.868Z,39.88
2018-01-12T19:47:38.311Z,42.15
2018-01-12T19:50:07.227Z,39.85
2018-01-12T19:52:34.664Z,43.38
2018-01-12T19:55:02.165Z,45.15
2018-01-12T19:57:29.372Z,39.88
2018-01-12T19:59:56.271Z,43.92
2018-01-12T20:02:23.226Z,41.17
2018-01-12T20:04:50.481Z,44.83
2018-01-12T20:07:18.207Z,43.17
2018-01-12T20:09:45.072Z,38.63
2018-01-12T20:12:12.751Z,37.60
2018-01-12T20:14:39.644Z,35.20
2018-01-12T20:17:07.436Z,35.95
2018-01-12T20:19:34.726Z,33.28
2018-01-12T20:22:01.432Z,39.45
2018-01-12T20:24:29.263Z,39.15
2018-01-12T20:26:57.039Z,37.63
2018-01-12T20:29:23.551Z,29.73
2018-01-12T20:31:50.241Z,33.17
2018-01-12T20:34:17.533Z,41.03
2018-01-12T20:36:44.094Z,44.58
2018-01-12T20:39:11.741Z,38.55
2018-01-12T20:41:39.753Z,36.20
2018-01-12T20:44:07.016Z,36.08
2018-01-12T20:46:33.371Z,38.42
2018-01-12T20:49:01.478Z,38.85
2018-01-12T20:51:29.178Z,49.78
2018-01-12T20:53:56.696Z,46.45
2018-01-12T20:56:23.825Z,39.45
2018-01-12T20:58:51.429Z,31.05
2018-01-12T21:01:18.994Z,25.80
2018-01-12T21:03:45.308Z,27.08
2018-01-12T21:06:11.792Z,28.38
2018-01-12T21:08:38.136Z,24.75
2018-01-12T21:11:04.974Z,22.55
2018-01-12T21:13:31.972Z,28.30
2018-01-12T21:15:59.463Z,26.20
2018-01-12T21:18:28.008Z,21.85
2018-01-12T21:20:55.382Z,22.80
2018-01-12T21:23:21.681Z,25.27
2018-01-12T21:25:48.672Z,33.78
2018-01-12T21:28:14.927Z,26.55
2018-01-12T21:30:42.534Z,31.70
2018-01-12T21:33:09.924Z,59.85
2018-01-12T21:35:37.357Z,43.87
2018-01-12T21:38:03.617Z,38.35
2018-01-12T21:40:30.685Z,44.38
2018-01-12T21:42:57.996Z,36.72
2018-01-12T21:45:25.725Z,37.47
2018-01-12T21:47:52.342Z,29.63
2018-01-12T21:50:19.502Z,24.33
2018-01-12T21:52:47.595Z,31.85
2018-01-12T21:55:14.781Z,30.88
2018-01-12T21:57:42.165Z,27.42
2018-01-12T22:00:09.332Z,31.33
2018-01-12T22:02:36.333Z,34.22
2018-01-12T22:05:04.479Z,25.52
2018-01-12T22:07:31.697Z,33.45
2018-01-12T22:09:58.867Z,26.45
2018-01-12T22:12:25.205Z,29.25
2018-01-12T22:14:58.731Z,28.38
2018-01-12T22:17:25.545Z,29.33
2018-01-12T22:19:53.339Z,27.42
2018-01-12T22:22:21.160Z,26.33
2018-01-12T22:24:47.926Z,28.00
2018-01-12T22:27:15.881Z,21.30
2018-01-12T22:29:42.628Z,26.15
2018-01-12T22:32:08.894Z,25.20
2018-01-12T22:34:35.126Z,29.48
2018-01-12T22:37:02.239Z,23.62
2018-01-12T22:39:29.620Z,26.30
2018-01-12T22:41:56.113Z,21.75
2018-01-12T22:44:23.804Z,21.50
2018-01-12T22:46:51.825Z,25.23
2018-01-12T22:49:19.038Z,24.23
2018-01-12T22:51:46.287Z,30.35
2018-01-12T22:54:14.010Z,24.92
2018-01-12T22:56:40.961Z,24.70
2018-01-12T22:59:07.275Z,25.65
2018-01-12T23:01:35.983Z,33.92
2018-01-12T23:13:47.463Z,28.27
2018-01-12T23:16:15.501Z,32.67
2018-01-12T23:18:43.186Z,29.87
2018-01-12T23:21:10.144Z,29.37
2018-01-12T23:23:36.733Z,37.92
2018-01-12T23:26:03.658Z,32.00
2018-01-12T23:28:30.837Z,32.53
2018-01-12T23:30:58.455Z,26.85
2018-01-12T23:33:25.654Z,33.78
2018-01-12T23:35:51.918Z,31.23
2018-01-12T23:40:51.886Z,27.45
2018-01-12T23:43:19.033Z,28.42
2018-01-12T23:45:45.848Z,30.80
2018-01-12T23:48:12.655Z,24.75
2018-01-12T23:50:39.636Z,29.85
2018-01-12T23:53:05.881Z,25.90
2018-01-12T23:55:33.343Z,25.55
2018-01-12T23:58:00.822Z,21.00
